createdAt,value
2022-09-28T00:01:58.857Z,8.90
2022-09-28T00:04:27.730Z,8.90
2022-09-28T00:06:56.337Z,8.90
2022-09-28T00:09:24.972Z,8.90
2022-09-28T00:11:56.358Z,8.90
2022-09-28T00:14:25.564Z,8.90
2022-09-28T00:16:54.049Z,8.80
2022-09-28T00:19:22.358Z,8.80
2022-09-28T00:21:50.732Z,8.80
2022-09-28T00:24:24.059Z,8.80
2022-09-28T00:26:58.078Z,8.80
2022-09-28T00:29:28.167Z,8.80
2022-09-28T00:32:00.181Z,8.70
2022-09-28T00:34:29.957Z,8.70
2022-09-28T00:36:58.882Z,8.60
2022-09-28T00:39:27.699Z,8.60
2022-09-28T00:41:57.556Z,8.50
2022-09-28T00:44:50.452Z,8.50
2022-09-28T00:47:49.989Z,8.40
2022-09-28T00:50:25.450Z,8.40
2022-09-28T00:52:58.999Z,8.50
2022-09-28T00:55:35.906Z,8.50
2022-09-28T00:58:08.974Z,8.40
2022-09-28T01:00:38.133Z,8.40
2022-09-28T01:03:06.711Z,8.40
2022-09-28T01:05:36.000Z,8.40
2022-09-28T01:08:05.818Z,8.30
2022-09-28T01:10:34.752Z,8.30
2022-09-28T01:13:03.373Z,8.30
2022-09-28T01:15:43.048Z,8.30
2022-09-28T01:18:18.563Z,8.30
2022-09-28T01:21:02.475Z,8.30
2022-09-28T01:23:57.349Z,8.30
2022-09-28T01:26:48.815Z,8.30
2022-09-28T01:29:33.174Z,8.30
2022-09-28T01:32:13.923Z,8.40
2022-09-28T01:34:48.942Z,8.40
2022-09-28T01:37:20.937Z,8.40
2022-09-28T01:39:51.372Z,8.40
2022-09-28T01:42:28.464Z,8.50
2022-09-28T01:45:05.123Z,8.50
2022-09-28T01:47:38.297Z,8.50
2022-09-28T01:50:11.296Z,8.50
2022-09-28T01:52:47.913Z,8.60
2022-09-28T01:55:24.759Z,8.60
2022-09-28T01:57:58.654Z,8.70
2022-09-28T02:00:28.511Z,8.60
2022-09-28T02:03:03.483Z,8.60
2022-09-28T02:05:48.779Z,8.60
2022-09-28T02:08:25.054Z,8.60
2022-09-28T02:10:58.991Z,8.60
2022-09-28T02:13:34.167Z,8.60
2022-09-28T02:16:07.502Z,8.60
2022-09-28T02:18:36.584Z,8.60
2022-09-28T02:21:11.186Z,8.60
2022-09-28T02:23:42.671Z,8.50
2022-09-28T02:26:15.617Z,8.50
2022-09-28T02:28:45.645Z,8.50
2022-09-28T02:31:14.744Z,8.50
2022-09-28T02:33:46.034Z,8.50
2022-09-28T02:36:16.083Z,8.50
2022-09-28T02:38:44.577Z,8.60
2022-09-28T02:41:27.963Z,8.60
2022-09-28T02:44:09.827Z,8.60
2022-09-28T02:46:46.917Z,8.60
2022-09-28T02:49:31.461Z,8.60
2022-09-28T02:52:16.736Z,8.50
2022-09-28T02:55:15.900Z,8.50
2022-09-28T02:57:57.141Z,8.50
2022-09-28T03:00:28.115Z,8.50
2022-09-28T03:03:03.795Z,8.30
2022-09-28T03:05:46.541Z,8.40
2022-09-28T03:08:23.394Z,8.30
2022-09-28T03:10:57.874Z,8.30
2022-09-28T03:13:28.133Z,8.30
2022-09-28T03:16:10.104Z,8.40
2022-09-28T03:18:39.219Z,8.40
2022-09-28T03:21:10.827Z,8.50
2022-09-28T03:23:39.602Z,8.60
2022-09-28T03:26:09.854Z,8.60
2022-09-28T03:28:38.602Z,8.60
2022-09-28T03:31:10.920Z,8.50
2022-09-28T03:33:39.920Z,8.60
2022-09-28T03:36:10.380Z,8.70
2022-09-28T03:38:40.389Z,8.70
2022-09-28T03:41:09.685Z,8.70
2022-09-28T03:43:42.080Z,8.70
2022-09-28T03:46:12.780Z,8.60
2022-09-28T03:48:46.407Z,8.60
2022-09-28T03:51:15.378Z,8.60
2022-09-28T03:53:44.070Z,8.70
2022-09-28T03:56:15.291Z,8.60
2022-09-28T03:58:43.919Z,8.60
2022-09-28T04:01:18.016Z,8.70
2022-09-28T04:03:49.278Z,8.70
2022-09-28T04:06:18.132Z,8.70
2022-09-28T04:08:46.544Z,8.70
2022-09-28T04:11:15.320Z,8.70
2022-09-28T04:13:45.376Z,8.70
2022-09-28T04:16:18.610Z,8.70
2022-09-28T04:18:56.267Z,8.80
2022-09-28T04:21:52.182Z,8.80
2022-09-28T04:24:28.197Z,8.80
2022-09-28T04:27:16.885Z,8.80
2022-09-28T04:29:44.724Z,8.80
2022-09-28T04:32:16.897Z,8.80
2022-09-28T04:34:45.597Z,8.80
2022-09-28T04:37:15.085Z,8.80
2022-09-28T04:39:47.596Z,8.80
2022-09-28T04:42:19.633Z,8.90
2022-09-28T04:44:50.477Z,8.90
2022-09-28T04:47:20.674Z,8.90
2022-09-28T04:50:13.441Z,8.90
2022-09-28T04:53:02.666Z,8.90
2022-09-28T04:55:32.680Z,8.90
2022-09-28T04:58:03.137Z,8.90
2022-09-28T05:00:33.354Z,8.70
2022-09-28T05:03:10.948Z,8.80
2022-09-28T05:06:09.341Z,8.80
2022-09-28T05:08:47.031Z,8.80
2022-09-28T05:11:16.394Z,8.80
2022-09-28T05:13:46.746Z,8.90
2022-09-28T05:16:18.093Z,8.90
2022-09-28T05:19:07.491Z,8.90
2022-09-28T05:21:36.128Z,9.00
2022-09-28T05:24:07.839Z,9.20
2022-09-28T05:26:39.000Z,9.30
2022-09-28T05:29:09.435Z,9.30
2022-09-28T05:31:56.649Z,9.40
2022-09-28T05:34:29.925Z,9.40
2022-09-28T05:36:58.535Z,9.30
2022-09-28T05:39:27.172Z,9.20
2022-09-28T05:41:58.019Z,9.40
2022-09-28T05:44:26.708Z,9.40
2022-09-28T05:46:56.503Z,9.40
2022-09-28T05:49:25.002Z,9.40
2022-09-28T05:51:55.224Z,9.60
2022-09-28T05:54:54.410Z,9.70
2022-09-28T05:57:23.206Z,9.70
2022-09-28T05:59:52.389Z,9.80
2022-09-28T06:02:21.338Z,9.90
2022-09-28T06:04:51.494Z,10.00
2022-09-28T06:07:23.273Z,9.90
2022-09-28T06:09:52.092Z,9.80
2022-09-28T06:12:35.606Z,9.80
2022-09-28T06:15:10.232Z,10.00
2022-09-28T06:17:39.045Z,9.80
2022-09-28T06:20:29.727Z,9.60
2022-09-28T06:23:10.978Z,9.40
2022-09-28T06:25:40.384Z,9.30
2022-09-28T06:28:12.237Z,9.30
2022-09-28T06:30:42.217Z,9.30
2022-09-28T06:33:15.487Z,9.20
2022-09-28T06:35:44.372Z,9.20
2022-09-28T06:38:14.575Z,9.20
2022-09-28T06:40:43.508Z,9.20
2022-09-28T06:43:15.635Z,9.20
2022-09-28T06:46:04.245Z,9.20
2022-09-28T06:48:52.616Z,9.30
2022-09-28T06:51:34.596Z,9.30
2022-09-28T06:54:15.036Z,9.30
2022-09-28T06:56:55.494Z,9.30
2022-09-28T06:59:24.393Z,9.40
2022-09-28T07:01:54.020Z,9.40
2022-09-28T07:04:51.698Z,9.40
2022-09-28T07:07:38.958Z,9.40
2022-09-28T07:10:20.751Z,9.50
2022-09-28T07:20:50.267Z,9.40
2022-09-28T07:34:15.133Z,9.60
2022-09-28T07:37:19.044Z,9.80
2022-09-28T07:40:06.621Z,9.90
2022-09-28T07:42:38.539Z,10.00
2022-09-28T07:45:08.975Z,10.10
2022-09-28T07:47:38.445Z,10.20
2022-09-28T07:50:21.554Z,10.30
2022-09-28T07:53:13.386Z,10.30
2022-09-28T07:56:02.435Z,10.40
2022-09-28T07:58:50.649Z,10.60
2022-09-28T08:01:45.584Z,10.60
2022-09-28T08:04:16.281Z,10.80
2022-09-28T08:06:48.989Z,10.90
2022-09-28T08:09:18.116Z,11.00
2022-09-28T08:12:19.830Z,11.00
2022-09-28T08:15:11.897Z,10.80
2022-09-28T08:17:58.014Z,10.70
2022-09-28T08:20:51.648Z,10.60
2022-09-28T08:23:23.648Z,10.80
2022-09-28T08:25:54.460Z,10.80
2022-09-28T08:28:25.658Z,10.90
2022-09-28T08:31:01.620Z,11.00
2022-09-28T08:33:33.475Z,11.00
2022-09-28T08:36:20.951Z,10.80
2022-09-28T08:38:57.006Z,10.80
2022-09-28T08:41:43.051Z,10.90
2022-09-28T08:47:57.099Z,11.20
2022-09-28T08:50:51.695Z,11.20
2022-09-28T08:53:36.953Z,11.20
2022-09-28T08:56:30.819Z,11.30
2022-09-28T08:59:03.621Z,11.40
2022-09-28T09:01:38.783Z,11.50
2022-09-28T09:04:11.326Z,11.50
2022-09-28T09:07:17.218Z,11.60
2022-09-28T09:10:02.169Z,11.70
2022-09-28T09:12:44.169Z,11.70
2022-09-28T09:15:40.736Z,11.80
2022-09-28T09:18:37.450Z,11.70
2022-09-28T09:21:43.032Z,11.70
2022-09-28T09:24:27.368Z,11.80
2022-09-28T09:27:07.133Z,11.70
2022-09-28T09:30:05.136Z,11.70
2022-09-28T09:33:00.689Z,11.80
2022-09-28T09:35:55.484Z,11.60
2022-09-28T09:38:58.253Z,11.50
2022-09-28T09:41:44.145Z,11.70
2022-09-28T09:44:54.129Z,11.70
2022-09-28T09:47:35.877Z,11.70
2022-09-28T09:50:30.292Z,11.60
2022-09-28T09:53:04.096Z,11.70
2022-09-28T09:55:38.929Z,11.90
2022-09-28T09:58:34.328Z,12.10
2022-09-28T10:01:17.268Z,12.20
2022-09-28T10:04:24.889Z,12.30
2022-09-28T10:07:02.978Z,12.30
2022-09-28T10:09:37.679Z,12.20
2022-09-28T10:12:35.817Z,12.20
2022-09-28T10:15:07.800Z,12.30
2022-09-28T10:17:49.176Z,12.30
2022-09-28T10:20:42.490Z,12.50
2022-09-28T10:23:24.245Z,12.60
2022-09-28T10:25:55.586Z,12.60
2022-09-28T10:28:34.441Z,12.60
2022-09-28T10:31:36.346Z,12.70
2022-09-28T10:34:08.524Z,13.40
2022-09-28T10:36:49.177Z,14.30
2022-09-28T10:39:36.442Z,14.30
2022-09-28T10:42:09.305Z,14.40
2022-09-28T10:44:55.467Z,14.40
2022-09-28T10:47:34.460Z,14.60
2022-09-28T10:50:05.067Z,15.10
2022-09-28T10:52:42.064Z,14.80
2022-09-28T10:55:31.319Z,14.90
2022-09-28T10:58:01.375Z,16.50
2022-09-28T11:00:41.905Z,16.80
2022-09-28T11:03:24.767Z,15.90
2022-09-28T11:05:58.579Z,15.50
2022-09-28T11:08:33.020Z,15.10
2022-09-28T11:11:10.054Z,15.10
2022-09-28T11:13:43.941Z,14.80
2022-09-28T11:16:28.677Z,14.50
2022-09-28T11:18:59.141Z,14.10
2022-09-28T11:21:29.910Z,14.20
2022-09-28T11:24:07.723Z,14.20
2022-09-28T11:26:44.426Z,14.10
2022-09-28T11:29:26.783Z,14.20
2022-09-28T11:32:18.936Z,14.30
2022-09-28T11:35:07.077Z,14.50
2022-09-28T11:38:00.404Z,14.60
2022-09-28T11:41:02.451Z,14.50
2022-09-28T11:43:52.291Z,14.40
2022-09-28T11:46:32.041Z,14.20
2022-09-28T11:49:16.465Z,14.40
2022-09-28T11:51:47.365Z,14.40
2022-09-28T11:54:26.830Z,14.40
2022-09-28T11:57:01.049Z,14.30
2022-09-28T11:59:34.857Z,14.40
2022-09-28T12:02:13.186Z,14.60
2022-09-28T12:04:53.136Z,14.80
2022-09-28T12:07:29.105Z,14.90
2022-09-28T12:10:02.491Z,15.10
2022-09-28T12:12:36.970Z,15.20
2022-09-28T12:15:18.189Z,15.10
2022-09-28T12:17:51.280Z,15.00
2022-09-28T12:20:24.313Z,14.80
2022-09-28T12:23:04.095Z,14.60
2022-09-28T12:25:40.531Z,14.60
2022-09-28T12:28:24.318Z,14.60
2022-09-28T12:30:54.801Z,14.70
2022-09-28T12:33:23.601Z,14.80
2022-09-28T12:36:05.219Z,15.10
2022-09-28T12:39:21.704Z,15.60
2022-09-28T12:42:01.151Z,15.90
2022-09-28T12:44:48.602Z,16.10
2022-09-28T12:47:43.092Z,16.20
2022-09-28T12:50:37.971Z,16.10
2022-09-28T12:53:23.730Z,15.90
2022-09-28T12:55:57.814Z,15.80
2022-09-28T12:58:38.140Z,15.90
2022-09-28T13:01:20.777Z,15.90
2022-09-28T13:04:13.353Z,15.90
2022-09-28T13:06:53.679Z,15.90
2022-09-28T13:09:25.310Z,16.10
2022-09-28T13:12:16.156Z,16.10
2022-09-28T13:15:16.251Z,16.10
2022-09-28T13:17:53.877Z,16.10
2022-09-28T13:20:32.669Z,16.30
2022-09-28T13:23:12.646Z,17.20
2022-09-28T13:25:45.626Z,17.80
2022-09-28T13:28:17.021Z,18.00
2022-09-28T13:30:47.285Z,17.90
2022-09-28T13:33:23.276Z,17.90
2022-09-28T13:35:52.025Z,17.50
2022-09-28T13:38:47.486Z,17.10
2022-09-28T13:41:29.850Z,16.50
2022-09-28T13:44:46.436Z,15.80
2022-09-28T13:47:28.566Z,15.70
2022-09-28T13:50:12.025Z,15.50
2022-09-28T13:52:47.697Z,15.30
2022-09-28T13:55:26.390Z,14.80
2022-09-28T13:57:59.207Z,14.60
2022-09-28T14:00:31.857Z,14.60
2022-09-28T14:03:13.337Z,14.90
2022-09-28T14:06:22.564Z,15.20
2022-09-28T14:09:10.849Z,15.60
2022-09-28T14:11:45.495Z,15.70
2022-09-28T14:14:33.273Z,15.60
2022-09-28T14:17:48.450Z,15.50
2022-09-28T14:20:19.170Z,15.20
2022-09-28T14:23:04.308Z,14.90
2022-09-28T14:25:35.099Z,14.70
2022-09-28T14:28:20.171Z,14.50
2022-09-28T14:30:52.080Z,14.30
2022-09-28T14:33:30.109Z,14.10
2022-09-28T14:36:02.553Z,13.70
2022-09-28T14:38:55.042Z,13.40
2022-09-28T14:41:31.667Z,13.20
2022-09-28T14:44:06.942Z,13.00
2022-09-28T14:46:45.137Z,12.90
2022-09-28T14:49:58.608Z,12.80
2022-09-28T14:52:46.703Z,12.90
2022-09-28T14:55:28.153Z,12.90
2022-09-28T14:58:06.205Z,12.60
2022-09-28T15:00:35.844Z,12.40
2022-09-28T15:03:11.515Z,11.90
2022-09-28T15:05:47.288Z,11.50
2022-09-28T15:08:18.804Z,11.20
2022-09-28T15:10:50.564Z,11.00
2022-09-28T15:13:25.782Z,10.90
2022-09-28T15:15:59.635Z,10.80
2022-09-28T15:18:47.762Z,10.70
2022-09-28T15:21:17.147Z,10.60
2022-09-28T15:23:47.313Z,10.60
2022-09-28T15:52:59.698Z,10.40
2022-09-28T15:55:34.064Z,10.50
2022-09-28T15:58:32.594Z,10.50
2022-09-28T16:01:36.654Z,10.50
2022-09-28T16:04:39.245Z,10.40
2022-09-28T16:07:31.762Z,10.40
2022-09-28T16:10:10.301Z,10.30
2022-09-28T16:12:55.962Z,10.30
2022-09-28T16:18:54.300Z,10.30
2022-09-28T16:22:08.550Z,10.30
2022-09-28T17:14:22.289Z,9.50
2022-09-28T17:18:05.549Z,9.50
2022-09-28T17:21:11.175Z,9.50
2022-09-28T17:24:01.041Z,9.40
2022-09-28T17:26:58.192Z,9.30
2022-09-28T17:29:56.273Z,9.20
2022-09-28T17:32:58.631Z,9.20
2022-09-28T17:36:31.592Z,9.40
2022-09-28T17:39:41.112Z,9.30
2022-09-28T17:54:31.985Z,8.40
2022-09-28T19:29:16.374Z,7.70
2022-09-28T19:31:59.901Z,7.50
2022-09-28T19:34:47.261Z,7.50
2022-09-28T19:37:26.676Z,7.40
2022-09-28T19:40:04.978Z,7.30
2022-09-28T19:42:39.443Z,7.20
2022-09-28T19:45:28.076Z,7.10
2022-09-28T19:48:15.562Z,6.90
2022-09-28T19:51:18.963Z,7.00
2022-09-28T19:54:01.633Z,6.90
2022-09-28T19:56:39.779Z,7.00
2022-09-28T19:59:14.967Z,7.10
2022-09-28T20:01:54.425Z,7.10
2022-09-28T20:04:28.234Z,7.10
2022-09-28T20:07:14.510Z,7.00
2022-09-28T20:10:04.849Z,7.00
2022-09-28T20:13:17.193Z,7.00
2022-09-28T20:15:50.465Z,7.00
2022-09-28T20:21:26.930Z,7.10
2022-09-28T20:23:56.463Z,7.10
2022-09-28T20:26:27.175Z,7.10
2022-09-28T20:28:57.158Z,7.00
2022-09-28T20:31:26.755Z,7.00
2022-09-28T20:33:57.802Z,7.00
2022-09-28T20:36:27.165Z,7.00
2022-09-28T20:39:01.952Z,6.90
2022-09-28T20:41:37.002Z,6.90
2022-09-28T20:44:07.325Z,6.90
2022-09-28T20:46:36.540Z,6.90
2022-09-28T20:49:07.947Z,6.80
2022-09-28T20:51:36.682Z,6.80
2022-09-28T20:54:05.548Z,6.70
2022-09-28T20:56:38.159Z,6.80
2022-09-28T20:59:09.219Z,6.90
2022-09-28T21:01:38.818Z,7.00
2022-09-28T21:04:10.397Z,7.00
2022-09-28T21:06:41.434Z,7.00
2022-09-28T21:09:11.744Z,7.10
2022-09-28T21:11:40.407Z,7.10
2022-09-28T21:14:10.010Z,7.10
2022-09-28T21:16:39.116Z,7.10
2022-09-28T21:19:08.999Z,7.20
2022-09-28T21:21:37.557Z,7.20
2022-09-28T21:24:06.428Z,7.10
2022-09-28T21:26:35.435Z,7.00
2022-09-28T21:29:06.575Z,7.00
2022-09-28T21:31:41.796Z,7.00
2022-09-28T21:34:14.569Z,7.00
2022-09-28T21:36:43.631Z,7.00
2022-09-28T21:39:12.275Z,6.90
2022-09-28T21:41:41.493Z,6.80
2022-09-28T21:44:10.455Z,6.80
2022-09-28T21:46:40.061Z,6.90
2022-09-28T21:49:09.631Z,6.70
2022-09-28T21:51:39.725Z,6.60
2022-09-28T21:54:08.716Z,6.60
2022-09-28T21:56:37.431Z,6.60
2022-09-28T21:59:06.303Z,6.60
2022-09-28T22:01:34.929Z,6.50
2022-09-28T22:04:03.414Z,6.60
2022-09-28T22:06:32.010Z,6.60
2022-09-28T22:09:02.191Z,6.60
2022-09-28T22:11:31.031Z,6.50
2022-09-28T22:14:01.090Z,6.40
2022-09-28T22:16:31.865Z,6.40
2022-09-28T22:19:01.198Z,6.30
2022-09-28T22:21:32.000Z,6.20
2022-09-28T22:24:03.653Z,6.20
2022-09-28T22:26:34.401Z,6.20
2022-09-28T22:29:05.368Z,6.00
2022-09-28T22:31:35.828Z,5.90
2022-09-28T22:34:05.168Z,5.80
2022-09-28T22:36:34.093Z,5.90
2022-09-28T22:39:04.693Z,5.80
2022-09-28T22:41:33.705Z,5.60
2022-09-28T22:44:02.551Z,5.50
2022-09-28T22:46:32.742Z,5.50
2022-09-28T22:49:02.308Z,5.50
2022-09-28T22:51:31.943Z,5.40
2022-09-28T22:54:01.740Z,5.40
2022-09-28T22:56:32.169Z,5.30
2022-09-28T22:59:00.939Z,5.30
2022-09-28T23:01:30.709Z,5.20
2022-09-28T23:03:59.755Z,5.20
2022-09-28T23:06:30.926Z,5.20
2022-09-28T23:08:59.918Z,5.10
2022-09-28T23:11:29.353Z,5.10
2022-09-28T23:14:00.702Z,5.10
2022-09-28T23:16:30.284Z,5.00
2022-09-28T23:18:59.218Z,5.30
2022-09-28T23:21:29.726Z,5.10
2022-09-28T23:24:01.132Z,5.00
2022-09-28T23:26:31.552Z,4.90
2022-09-28T23:29:01.870Z,4.80
2022-09-28T23:31:32.537Z,4.80
2022-09-28T23:34:02.513Z,4.80
2022-09-28T23:36:31.243Z,4.80
2022-09-28T23:39:00.062Z,4.70
2022-09-28T23:41:28.776Z,4.70
2022-09-28T23:43:57.495Z,4.70
2022-09-28T23:46:27.520Z,4.60
2022-09-28T23:48:57.314Z,4.60
2022-09-28T23:51:26.025Z,4.70
2022-09-28T23:53:54.728Z,4.60
2022-09-28T23:56:23.365Z,4.60
2022-09-28T23:58:51.923Z,4.60
